KOAR/OAR METAR and TAF weather

Enter ICAO airport designator
Station Type Date Time Source
KOAR METAR 2022/11/30 17:55 UTC NOAA

KOAR 301755Z AUTO 00000KT 10SM CLR 07/02 A3004 RMK AO2


Station Type Date Time Source
KOAR Decoded METAR 2022/11/30 17:55 UTC NOAA

Station name not available
Nov 30, 2022 - 12:55 PM EST / 2022.11.30 1755 UTC
Wind: Calm:0
Visibility: 10 mile(s):0
Sky conditions: clear
Temperature: 44 F (7 C)
Dew Point: 35 F (2 C)
Relative Humidity: 70%
Pressure (altimeter): 30.04 in. Hg (1017 hPa)
ob: KOAR 301755Z AUTO 00000KT 10SM CLR 07/02 A3004 RMK AO2
cycle: 18

Station Type Date Time Source
KOAR TAF UTC NOAA

Error!

Example: see airport list